sensor_id;sensor_type;location;lat;lon;timestamp;P1;durP1;ratioP1;P2;durP2;ratioP2
22040;SDS011;11184;52.444;13.578;2024-02-04T00:00:56;6.28;;;2.33;;
22040;SDS011;11184;52.444;13.578;2024-02-04T00:03:41;8.93;;;2.38;;
22040;SDS011;11184;52.444;13.578;2024-02-04T00:06:25;6.03;;;2.15;;
22040;SDS011;11184;52.444;13.578;2024-02-04T00:09:10;6.95;;;1.45;;
22040;SDS011;11184;52.444;13.578;2024-02-04T00:11:54;9.50;;;1.92;;
22040;SDS011;11184;52.444;13.578;2024-02-04T00:14:39;7.13;;;2.25;;
22040;SDS011;11184;52.444;13.578;2024-02-04T00:17:24;6.43;;;2.15;;
22040;SDS011;11184;52.444;13.578;2024-02-04T00:20:13;5.95;;;2.38;;
22040;SDS011;11184;52.444;13.578;2024-02-04T00:22:58;7.80;;;2.25;;
22040;SDS011;11184;52.444;13.578;2024-02-04T00:25:42;10.70;;;1.83;;
22040;SDS011;11184;52.444;13.578;2024-02-04T00:28:27;10.40;;;1.75;;
22040;SDS011;11184;52.444;13.578;2024-02-04T00:31:11;6.95;;;1.70;;
22040;SDS011;11184;52.444;13.578;2024-02-04T00:33:56;10.07;;;1.90;;
22040;SDS011;11184;52.444;13.578;2024-02-04T00:36:41;7.05;;;1.58;;
22040;SDS011;11184;52.444;13.578;2024-02-04T00:39:25;7.15;;;1.75;;
22040;SDS011;11184;52.444;13.578;2024-02-04T00:42:10;7.97;;;2.63;;
22040;SDS011;11184;52.444;13.578;2024-02-04T00:44:55;8.48;;;2.78;;
22040;SDS011;11184;52.444;13.578;2024-02-04T00:47:39;8.63;;;2.70;;
22040;SDS011;11184;52.444;13.578;2024-02-04T00:50:24;11.63;;;3.42;;
22040;SDS011;11184;52.444;13.578;2024-02-04T00:53:08;9.93;;;1.80;;
22040;SDS011;11184;52.444;13.578;2024-02-04T00:55:53;8.73;;;2.42;;
22040;SDS011;11184;52.444;13.578;2024-02-04T00:58:38;6.63;;;1.88;;
22040;SDS011;11184;52.444;13.578;2024-02-04T01:01:23;14.52;;;2.83;;
22040;SDS011;11184;52.444;13.578;2024-02-04T01:04:07;12.23;;;3.13;;
22040;SDS011;11184;52.444;13.578;2024-02-04T01:06:52;10.38;;;2.33;;
22040;SDS011;11184;52.444;13.578;2024-02-04T01:09:36;6.53;;;2.03;;
22040;SDS011;11184;52.444;13.578;2024-02-04T01:12:21;8.65;;;2.50;;
22040;SDS011;11184;52.444;13.578;2024-02-04T01:15:06;15.32;;;2.40;;
22040;SDS011;11184;52.444;13.578;2024-02-04T01:17:50;13.15;;;2.35;;
22040;SDS011;11184;52.444;13.578;2024-02-04T01:20:36;11.05;;;3.05;;
22040;SDS011;11184;52.444;13.578;2024-02-04T01:23:20;9.30;;;2.78;;
22040;SDS011;11184;52.444;13.578;2024-02-04T01:26:05;14.13;;;3.10;;
22040;SDS011;11184;52.444;13.578;2024-02-04T01:28:50;12.65;;;3.00;;
22040;SDS011;11184;52.444;13.578;2024-02-04T01:31:34;7.63;;;2.30;;
22040;SDS011;11184;52.444;13.578;2024-02-04T01:34:19;7.40;;;2.15;;
22040;SDS011;11184;52.444;13.578;2024-02-04T01:37:04;23.30;;;3.65;;
22040;SDS011;11184;52.444;13.578;2024-02-04T01:39:48;14.85;;;1.95;;
22040;SDS011;11184;52.444;13.578;2024-02-04T01:42:33;11.77;;;2.22;;
22040;SDS011;11184;52.444;13.578;2024-02-04T01:45:17;10.80;;;2.22;;
22040;SDS011;11184;52.444;13.578;2024-02-04T01:48:02;17.55;;;3.30;;
22040;SDS011;11184;52.444;13.578;2024-02-04T01:50:47;13.27;;;2.78;;
22040;SDS011;11184;52.444;13.578;2024-02-04T01:53:32;16.42;;;2.15;;
22040;SDS011;11184;52.444;13.578;2024-02-04T01:56:18;7.68;;;1.75;;
22040;SDS011;11184;52.444;13.578;2024-02-04T01:59:03;13.48;;;1.85;;
22040;SDS011;11184;52.444;13.578;2024-02-04T02:01:48;10.05;;;1.80;;
22040;SDS011;11184;52.444;13.578;2024-02-04T02:04:33;10.18;;;3.40;;
22040;SDS011;11184;52.444;13.578;2024-02-04T02:07:18;7.40;;;2.08;;
22040;SDS011;11184;52.444;13.578;2024-02-04T02:10:04;10.32;;;2.70;;
22040;SDS011;11184;52.444;13.578;2024-02-04T02:12:52;14.60;;;3.42;;
22040;SDS011;11184;52.444;13.578;2024-02-04T02:15:43;20.90;;;4.47;;
22040;SDS011;11184;52.444;13.578;2024-02-04T02:18:37;18.27;;;3.22;;
22040;SDS011;11184;52.444;13.578;2024-02-04T02:21:38;11.18;;;3.22;;
22040;SDS011;11184;52.444;13.578;2024-02-04T02:24:31;16.10;;;2.53;;
22040;SDS011;11184;52.444;13.578;2024-02-04T02:27:17;10.55;;;2.88;;
22040;SDS011;11184;52.444;13.578;2024-02-04T02:30:02;8.93;;;2.60;;
22040;SDS011;11184;52.444;13.578;2024-02-04T02:32:47;15.52;;;3.40;;
22040;SDS011;11184;52.444;13.578;2024-02-04T02:35:33;6.90;;;2.58;;
22040;SDS011;11184;52.444;13.578;2024-02-04T02:38:25;13.57;;;2.20;;
22040;SDS011;11184;52.444;13.578;2024-02-04T02:41:11;12.95;;;2.25;;
22040;SDS011;11184;52.444;13.578;2024-02-04T02:43:57;9.50;;;2.53;;
22040;SDS011;11184;52.444;13.578;2024-02-04T02:46:42;11.82;;;2.72;;
22040;SDS011;11184;52.444;13.578;2024-02-04T02:49:27;10.52;;;2.20;;
22040;SDS011;11184;52.444;13.578;2024-02-04T02:52:12;9.38;;;2.00;;
22040;SDS011;11184;52.444;13.578;2024-02-04T02:54:56;10.88;;;1.55;;
22040;SDS011;11184;52.444;13.578;2024-02-04T02:57:41;8.95;;;2.20;;
22040;SDS011;11184;52.444;13.578;2024-02-04T03:00:26;7.50;;;2.80;;
22040;SDS011;11184;52.444;13.578;2024-02-04T03:03:10;11.20;;;2.92;;
22040;SDS011;11184;52.444;13.578;2024-02-04T03:05:55;11.85;;;3.38;;
22040;SDS011;11184;52.444;13.578;2024-02-04T03:08:40;13.20;;;2.85;;
22040;SDS011;11184;52.444;13.578;2024-02-04T03:11:24;7.90;;;2.90;;
22040;SDS011;11184;52.444;13.578;2024-02-04T03:14:09;13.38;;;3.72;;
22040;SDS011;11184;52.444;13.578;2024-02-04T03:16:54;13.32;;;2.40;;
22040;SDS011;11184;52.444;13.578;2024-02-04T03:19:38;9.70;;;2.53;;
22040;SDS011;11184;52.444;13.578;2024-02-04T03:22:23;12.05;;;2.92;;
22040;SDS011;11184;52.444;13.578;2024-02-04T03:25:07;8.25;;;3.38;;
22040;SDS011;11184;52.444;13.578;2024-02-04T03:27:52;12.32;;;3.72;;
22040;SDS011;11184;52.444;13.578;2024-02-04T03:30:37;8.57;;;3.20;;
22040;SDS011;11184;52.444;13.578;2024-02-04T03:33:21;6.35;;;2.80;;
22040;SDS011;11184;52.444;13.578;2024-02-04T03:36:06;14.07;;;3.78;;
22040;SDS011;11184;52.444;13.578;2024-02-04T03:38:50;9.05;;;2.72;;
22040;SDS011;11184;52.444;13.578;2024-02-04T03:41:35;10.95;;;3.45;;
22040;SDS011;11184;52.444;13.578;2024-02-04T03:44:20;17.40;;;4.65;;
22040;SDS011;11184;52.444;13.578;2024-02-04T03:47:05;12.95;;;3.80;;
22040;SDS011;11184;52.444;13.578;2024-02-04T03:49:50;13.95;;;4.07;;
22040;SDS011;11184;52.444;13.578;2024-02-04T03:52:34;12.77;;;3.60;;
22040;SDS011;11184;52.444;13.578;2024-02-04T03:55:19;14.85;;;5.25;;
22040;SDS011;11184;52.444;13.578;2024-02-04T03:58:03;8.60;;;4.10;;
22040;SDS011;11184;52.444;13.578;2024-02-04T04:00:48;6.78;;;3.28;;
22040;SDS011;11184;52.444;13.578;2024-02-04T04:03:33;8.35;;;2.80;;
22040;SDS011;11184;52.444;13.578;2024-02-04T04:06:17;6.20;;;3.00;;
22040;SDS011;11184;52.444;13.578;2024-02-04T04:09:02;11.45;;;3.40;;
22040;SDS011;11184;52.444;13.578;2024-02-04T04:11:47;12.52;;;4.10;;
22040;SDS011;11184;52.444;13.578;2024-02-04T04:14:31;11.27;;;3.60;;
22040;SDS011;11184;52.444;13.578;2024-02-04T04:17:16;5.80;;;3.20;;
22040;SDS011;11184;52.444;13.578;2024-02-04T04:20:00;6.00;;;2.90;;
22040;SDS011;11184;52.444;13.578;2024-02-04T04:22:45;13.10;;;4.40;;
22040;SDS011;11184;52.444;13.578;2024-02-04T04:25:30;7.20;;;3.97;;
22040;SDS011;11184;52.444;13.578;2024-02-04T04:28:14;8.30;;;2.83;;
22040;SDS011;11184;52.444;13.578;2024-02-04T04:30:59;5.93;;;3.13;;
22040;SDS011;11184;52.444;13.578;2024-02-04T04:33:43;14.60;;;3.90;;
22040;SDS011;11184;52.444;13.578;2024-02-04T04:36:28;9.93;;;3.05;;
22040;SDS011;11184;52.444;13.578;2024-02-04T04:39:13;6.80;;;1.95;;
22040;SDS011;11184;52.444;13.578;2024-02-04T04:41:57;10.88;;;2.92;;
22040;SDS011;11184;52.444;13.578;2024-02-04T04:44:42;9.82;;;3.38;;
22040;SDS011;11184;52.444;13.578;2024-02-04T04:47:27;10.65;;;2.38;;
22040;SDS011;11184;52.444;13.578;2024-02-04T04:50:11;14.23;;;3.75;;
22040;SDS011;11184;52.444;13.578;2024-02-04T04:52:56;5.07;;;2.50;;
22040;SDS011;11184;52.444;13.578;2024-02-04T04:55:40;6.72;;;3.60;;
22040;SDS011;11184;52.444;13.578;2024-02-04T04:58:25;9.90;;;2.85;;
22040;SDS011;11184;52.444;13.578;2024-02-04T05:01:10;10.15;;;2.88;;
22040;SDS011;11184;52.444;13.578;2024-02-04T05:03:54;5.63;;;2.97;;
22040;SDS011;11184;52.444;13.578;2024-02-04T05:06:39;7.15;;;3.55;;
22040;SDS011;11184;52.444;13.578;2024-02-04T05:09:24;5.63;;;2.67;;
22040;SDS011;11184;52.444;13.578;2024-02-04T05:12:08;14.75;;;3.40;;
22040;SDS011;11184;52.444;13.578;2024-02-04T05:14:53;8.05;;;3.42;;
22040;SDS011;11184;52.444;13.578;2024-02-04T05:17:38;7.45;;;2.75;;
22040;SDS011;11184;52.444;13.578;2024-02-04T05:20:22;13.65;;;4.43;;
22040;SDS011;11184;52.444;13.578;2024-02-04T05:23:07;11.73;;;5.10;;
22040;SDS011;11184;52.444;13.578;2024-02-04T05:25:52;6.75;;;2.88;;
22040;SDS011;11184;52.444;13.578;2024-02-04T05:28:36;15.68;;;3.50;;
22040;SDS011;11184;52.444;13.578;2024-02-04T05:31:21;8.68;;;3.35;;
22040;SDS011;11184;52.444;13.578;2024-02-04T05:34:05;11.95;;;3.83;;
22040;SDS011;11184;52.444;13.578;2024-02-04T05:36:50;17.73;;;4.63;;
22040;SDS011;11184;52.444;13.578;2024-02-04T05:39:35;7.35;;;3.88;;
22040;SDS011;11184;52.444;13.578;2024-02-04T05:42:19;10.57;;;3.75;;
22040;SDS011;11184;52.444;13.578;2024-02-04T05:45:04;13.05;;;3.20;;
22040;SDS011;11184;52.444;13.578;2024-02-04T05:47:49;7.93;;;3.78;;
22040;SDS011;11184;52.444;13.578;2024-02-04T05:50:35;8.98;;;3.53;;
22040;SDS011;11184;52.444;13.578;2024-02-04T05:53:20;9.00;;;3.38;;
22040;SDS011;11184;52.444;13.578;2024-02-04T05:56:04;19.42;;;4.55;;
22040;SDS011;11184;52.444;13.578;2024-02-04T05:58:49;12.52;;;4.25;;
22040;SDS011;11184;52.444;13.578;2024-02-04T06:01:34;9.77;;;4.00;;
22040;SDS011;11184;52.444;13.578;2024-02-04T06:04:19;12.20;;;4.82;;
22040;SDS011;11184;52.444;13.578;2024-02-04T06:07:03;6.32;;;3.70;;
22040;SDS011;11184;52.444;13.578;2024-02-04T06:09:48;7.07;;;4.65;;
22040;SDS011;11184;52.444;13.578;2024-02-04T06:12:32;11.63;;;4.57;;
22040;SDS011;11184;52.444;13.578;2024-02-04T06:15:17;15.75;;;4.40;;
22040;SDS011;11184;52.444;13.578;2024-02-04T06:18:04;7.07;;;3.72;;
22040;SDS011;11184;52.444;13.578;2024-02-04T06:20:48;7.22;;;2.72;;
22040;SDS011;11184;52.444;13.578;2024-02-04T06:23:33;10.23;;;2.75;;
22040;SDS011;11184;52.444;13.578;2024-02-04T06:26:18;4.72;;;2.40;;
22040;SDS011;11184;52.444;13.578;2024-02-04T06:29:03;12.85;;;3.15;;
22040;SDS011;11184;52.444;13.578;2024-02-04T06:31:47;7.80;;;3.30;;
22040;SDS011;11184;52.444;13.578;2024-02-04T06:34:32;7.80;;;2.90;;
22040;SDS011;11184;52.444;13.578;2024-02-04T06:37:16;6.18;;;2.25;;
22040;SDS011;11184;52.444;13.578;2024-02-04T06:40:01;10.82;;;3.08;;
22040;SDS011;11184;52.444;13.578;2024-02-04T06:42:45;7.90;;;2.72;;
22040;SDS011;11184;52.444;13.578;2024-02-04T06:45:30;5.38;;;2.75;;
22040;SDS011;11184;52.444;13.578;2024-02-04T06:48:14;6.00;;;2.78;;
22040;SDS011;11184;52.444;13.578;2024-02-04T06:51:02;8.65;;;2.90;;
22040;SDS011;11184;52.444;13.578;2024-02-04T06:53:47;6.90;;;3.95;;
22040;SDS011;11184;52.444;13.578;2024-02-04T06:56:32;13.32;;;4.40;;
22040;SDS011;11184;52.444;13.578;2024-02-04T06:59:16;10.52;;;4.43;;
22040;SDS011;11184;52.444;13.578;2024-02-04T07:02:01;7.97;;;3.28;;
22040;SDS011;11184;52.444;13.578;2024-02-04T07:04:45;8.77;;;4.32;;
22040;SDS011;11184;52.444;13.578;2024-02-04T07:07:30;10.00;;;3.63;;
22040;SDS011;11184;52.444;13.578;2024-02-04T07:10:15;8.90;;;3.60;;
22040;SDS011;11184;52.444;13.578;2024-02-04T07:13:00;7.63;;;3.63;;
22040;SDS011;11184;52.444;13.578;2024-02-04T07:15:45;10.02;;;5.30;;
22040;SDS011;11184;52.444;13.578;2024-02-04T07:18:30;10.70;;;4.75;;
22040;SDS011;11184;52.444;13.578;2024-02-04T07:21:14;19.05;;;6.13;;
22040;SDS011;11184;52.444;13.578;2024-02-04T07:23:59;10.98;;;3.65;;
22040;SDS011;11184;52.444;13.578;2024-02-04T07:26:43;15.07;;;5.03;;
22040;SDS011;11184;52.444;13.578;2024-02-04T07:29:28;8.27;;;4.80;;
22040;SDS011;11184;52.444;13.578;2024-02-04T07:32:13;8.13;;;4.28;;
22040;SDS011;11184;52.444;13.578;2024-02-04T07:34:58;10.50;;;5.40;;
22040;SDS011;11184;52.444;13.578;2024-02-04T07:37:43;14.57;;;4.75;;
22040;SDS011;11184;52.444;13.578;2024-02-04T07:40:27;7.22;;;4.03;;
22040;SDS011;11184;52.444;13.578;2024-02-04T07:43:14;11.07;;;4.18;;
22040;SDS011;11184;52.444;13.578;2024-02-04T07:45:58;8.02;;;3.85;;
22040;SDS011;11184;52.444;13.578;2024-02-04T07:48:43;6.50;;;3.72;;
22040;SDS011;11184;52.444;13.578;2024-02-04T07:51:27;12.13;;;3.88;;
22040;SDS011;11184;52.444;13.578;2024-02-04T07:54:12;14.73;;;5.07;;
22040;SDS011;11184;52.444;13.578;2024-02-04T07:56:56;9.40;;;5.65;;
22040;SDS011;11184;52.444;13.578;2024-02-04T07:59:41;6.40;;;4.07;;
22040;SDS011;11184;52.444;13.578;2024-02-04T08:02:25;11.57;;;5.18;;
22040;SDS011;11184;52.444;13.578;2024-02-04T08:05:10;11.93;;;5.07;;
22040;SDS011;11184;52.444;13.578;2024-02-04T08:07:55;10.38;;;4.43;;
22040;SDS011;11184;52.444;13.578;2024-02-04T08:10:39;8.30;;;4.70;;
22040;SDS011;11184;52.444;13.578;2024-02-04T08:13:24;9.52;;;4.78;;
22040;SDS011;11184;52.444;13.578;2024-02-04T08:16:08;8.40;;;5.20;;
22040;SDS011;11184;52.444;13.578;2024-02-04T08:18:53;13.95;;;5.13;;
22040;SDS011;11184;52.444;13.578;2024-02-04T08:21:37;3.95;;;3.10;;
22040;SDS011;11184;52.444;13.578;2024-02-04T08:24:22;13.73;;;3.55;;
22040;SDS011;11184;52.444;13.578;2024-02-04T08:27:07;7.35;;;3.88;;
22040;SDS011;11184;52.444;13.578;2024-02-04T08:29:52;13.15;;;5.10;;
22040;SDS011;11184;52.444;13.578;2024-02-04T08:32:37;9.50;;;3.70;;
22040;SDS011;11184;52.444;13.578;2024-02-04T08:35:22;12.40;;;3.63;;
22040;SDS011;11184;52.444;13.578;2024-02-04T08:38:06;21.05;;;4.88;;
22040;SDS011;11184;52.444;13.578;2024-02-04T08:40:51;7.72;;;4.75;;
22040;SDS011;11184;52.444;13.578;2024-02-04T08:43:36;13.48;;;4.35;;
22040;SDS011;11184;52.444;13.578;2024-02-04T08:46:20;13.52;;;5.07;;
22040;SDS011;11184;52.444;13.578;2024-02-04T08:49:05;10.48;;;3.60;;
22040;SDS011;11184;52.444;13.578;2024-02-04T08:51:50;5.78;;;2.40;;
22040;SDS011;11184;52.444;13.578;2024-02-04T08:54:34;13.88;;;3.72;;
22040;SDS011;11184;52.444;13.578;2024-02-04T08:57:19;12.27;;;3.30;;
22040;SDS011;11184;52.444;13.578;2024-02-04T09:00:04;12.35;;;4.90;;
22040;SDS011;11184;52.444;13.578;2024-02-04T09:02:51;8.68;;;3.08;;
22040;SDS011;11184;52.444;13.578;2024-02-04T09:05:36;7.38;;;2.63;;
22040;SDS011;11184;52.444;13.578;2024-02-04T09:08:21;10.57;;;3.42;;
22040;SDS011;11184;52.444;13.578;2024-02-04T09:11:05;8.20;;;2.72;;
22040;SDS011;11184;52.444;13.578;2024-02-04T09:13:50;7.78;;;2.83;;
22040;SDS011;11184;52.444;13.578;2024-02-04T09:16:37;5.25;;;3.42;;
22040;SDS011;11184;52.444;13.578;2024-02-04T09:19:22;7.28;;;3.00;;
22040;SDS011;11184;52.444;13.578;2024-02-04T09:22:08;7.97;;;3.25;;
22040;SDS011;11184;52.444;13.578;2024-02-04T09:24:54;14.00;;;3.70;;
22040;SDS011;11184;52.444;13.578;2024-02-04T09:27:39;5.22;;;2.70;;
22040;SDS011;11184;52.444;13.578;2024-02-04T09:30:23;6.80;;;3.13;;
22040;SDS011;11184;52.444;13.578;2024-02-04T09:33:08;9.18;;;2.63;;
22040;SDS011;11184;52.444;13.578;2024-02-04T09:35:52;9.43;;;2.20;;
22040;SDS011;11184;52.444;13.578;2024-02-04T09:38:37;7.05;;;2.13;;
22040;SDS011;11184;52.444;13.578;2024-02-04T09:41:22;7.97;;;2.40;;
22040;SDS011;11184;52.444;13.578;2024-02-04T09:44:08;5.97;;;1.27;;
22040;SDS011;11184;52.444;13.578;2024-02-04T09:46:53;8.07;;;1.23;;
22040;SDS011;11184;52.444;13.578;2024-02-04T09:49:42;10.27;;;1.95;;
22040;SDS011;11184;52.444;13.578;2024-02-04T09:52:30;8.85;;;1.67;;
22040;SDS011;11184;52.444;13.578;2024-02-04T09:55:17;9.57;;;1.83;;
22040;SDS011;11184;52.444;13.578;2024-02-04T09:58:03;10.93;;;2.70;;
22040;SDS011;11184;52.444;13.578;2024-02-04T10:00:48;8.43;;;2.13;;
22040;SDS011;11184;52.444;13.578;2024-02-04T10:03:35;7.32;;;1.65;;
22040;SDS011;11184;52.444;13.578;2024-02-04T10:06:20;9.55;;;1.77;;
22040;SDS011;11184;52.444;13.578;2024-02-04T10:09:04;3.72;;;1.60;;
22040;SDS011;11184;52.444;13.578;2024-02-04T10:11:50;5.32;;;1.40;;
22040;SDS011;11184;52.444;13.578;2024-02-04T10:14:34;5.90;;;1.27;;
22040;SDS011;11184;52.444;13.578;2024-02-04T10:17:19;10.05;;;1.67;;
22040;SDS011;11184;52.444;13.578;2024-02-04T10:20:04;4.10;;;1.02;;
22040;SDS011;11184;52.444;13.578;2024-02-04T10:22:49;3.08;;;1.00;;
22040;SDS011;11184;52.444;13.578;2024-02-04T10:25:34;4.47;;;1.05;;
22040;SDS011;11184;52.444;13.578;2024-02-04T10:28:18;5.30;;;1.55;;
22040;SDS011;11184;52.444;13.578;2024-02-04T10:31:03;3.47;;;1.63;;
22040;SDS011;11184;52.444;13.578;2024-02-04T10:33:49;3.03;;;1.10;;
22040;SDS011;11184;52.444;13.578;2024-02-04T10:36:35;4.60;;;1.17;;
22040;SDS011;11184;52.444;13.578;2024-02-04T10:39:19;7.47;;;1.42;;
22040;SDS011;11184;52.444;13.578;2024-02-04T10:42:04;3.65;;;1.00;;
22040;SDS011;11184;52.444;13.578;2024-02-04T10:44:49;10.48;;;1.38;;
22040;SDS011;11184;52.444;13.578;2024-02-04T10:47:39;3.42;;;1.77;;
22040;SDS011;11184;52.444;13.578;2024-02-04T10:50:24;6.28;;;1.20;;
22040;SDS011;11184;52.444;13.578;2024-02-04T10:53:10;6.25;;;1.67;;
22040;SDS011;11184;52.444;13.578;2024-02-04T10:55:56;5.43;;;1.17;;
22040;SDS011;11184;52.444;13.578;2024-02-04T10:58:44;5.15;;;1.73;;
22040;SDS011;11184;52.444;13.578;2024-02-04T11:01:30;9.68;;;1.35;;
22040;SDS011;11184;52.444;13.578;2024-02-04T11:04:16;4.65;;;1.20;;
22040;SDS011;11184;52.444;13.578;2024-02-04T11:07:01;3.28;;;1.25;;
22040;SDS011;11184;52.444;13.578;2024-02-04T11:09:46;4.28;;;1.42;;
22040;SDS011;11184;52.444;13.578;2024-02-04T11:12:33;3.80;;;1.45;;
22040;SDS011;11184;52.444;13.578;2024-02-04T11:15:20;1.98;;;1.38;;
22040;SDS011;11184;52.444;13.578;2024-02-04T11:18:28;3.83;;;1.40;;
22040;SDS011;11184;52.444;13.578;2024-02-04T11:21:25;5.88;;;1.70;;
22040;SDS011;11184;52.444;13.578;2024-02-04T11:27:15;4.25;;;1.45;;
22040;SDS011;11184;52.444;13.578;2024-02-04T11:30:00;7.05;;;1.45;;
22040;SDS011;11184;52.444;13.578;2024-02-04T11:32:44;4.07;;;1.83;;
22040;SDS011;11184;52.444;13.578;2024-02-04T11:35:30;7.53;;;1.77;;
22040;SDS011;11184;52.444;13.578;2024-02-04T11:38:18;2.88;;;0.90;;
22040;SDS011;11184;52.444;13.578;2024-02-04T11:41:04;11.40;;;1.50;;
22040;SDS011;11184;52.444;13.578;2024-02-04T11:43:51;8.73;;;2.08;;
22040;SDS011;11184;52.444;13.578;2024-02-04T11:46:35;4.38;;;1.70;;
22040;SDS011;11184;52.444;13.578;2024-02-04T11:49:23;5.20;;;1.35;;
22040;SDS011;11184;52.444;13.578;2024-02-04T11:52:08;7.88;;;1.30;;
22040;SDS011;11184;52.444;13.578;2024-02-04T11:55:03;6.28;;;1.40;;
22040;SDS011;11184;52.444;13.578;2024-02-04T11:57:50;3.45;;;1.30;;
22040;SDS011;11184;52.444;13.578;2024-02-04T12:00:35;7.13;;;1.52;;
22040;SDS011;11184;52.444;13.578;2024-02-04T12:03:33;5.25;;;1.27;;
22040;SDS011;11184;52.444;13.578;2024-02-04T12:06:18;7.57;;;1.42;;
22040;SDS011;11184;52.444;13.578;2024-02-04T12:09:03;6.70;;;1.77;;
22040;SDS011;11184;52.444;13.578;2024-02-04T12:11:50;10.32;;;2.50;;
22040;SDS011;11184;52.444;13.578;2024-02-04T12:14:35;9.23;;;1.55;;
22040;SDS011;11184;52.444;13.578;2024-02-04T12:17:20;8.60;;;2.13;;
22040;SDS011;11184;52.444;13.578;2024-02-04T12:20:05;8.13;;;2.15;;
22040;SDS011;11184;52.444;13.578;2024-02-04T12:22:50;2.28;;;0.82;;
22040;SDS011;11184;52.444;13.578;2024-02-04T12:25:35;4.80;;;1.80;;
22040;SDS011;11184;52.444;13.578;2024-02-04T12:28:20;9.07;;;2.05;;
22040;SDS011;11184;52.444;13.578;2024-02-04T12:31:04;12.10;;;1.73;;
22040;SDS011;11184;52.444;13.578;2024-02-04T12:33:52;3.03;;;1.10;;
22040;SDS011;11184;52.444;13.578;2024-02-04T12:36:37;2.60;;;1.23;;
22040;SDS011;11184;52.444;13.578;2024-02-04T12:39:22;6.35;;;1.90;;
22040;SDS011;11184;52.444;13.578;2024-02-04T12:42:07;9.07;;;1.50;;
22040;SDS011;11184;52.444;13.578;2024-02-04T12:44:51;6.35;;;0.90;;
22040;SDS011;11184;52.444;13.578;2024-02-04T12:47:41;3.22;;;1.23;;
22040;SDS011;11184;52.444;13.578;2024-02-04T12:50:26;4.10;;;1.05;;
22040;SDS011;11184;52.444;13.578;2024-02-04T12:53:11;3.70;;;1.35;;
22040;SDS011;11184;52.444;13.578;2024-02-04T12:55:59;6.25;;;1.85;;
22040;SDS011;11184;52.444;13.578;2024-02-04T12:58:44;4.90;;;0.90;;
22040;SDS011;11184;52.444;13.578;2024-02-04T13:01:28;5.68;;;1.13;;
22040;SDS011;11184;52.444;13.578;2024-02-04T13:04:13;8.13;;;2.22;;
22040;SDS011;11184;52.444;13.578;2024-02-04T13:06:58;4.85;;;1.33;;
22040;SDS011;11184;52.444;13.578;2024-02-04T13:09:42;5.53;;;1.40;;
22040;SDS011;11184;52.444;13.578;2024-02-04T13:12:28;5.05;;;1.23;;
22040;SDS011;11184;52.444;13.578;2024-02-04T13:15:16;3.50;;;1.70;;
22040;SDS011;11184;52.444;13.578;2024-02-04T13:18:01;3.58;;;1.40;;
22040;SDS011;11184;52.444;13.578;2024-02-04T13:20:45;10.48;;;1.70;;
22040;SDS011;11184;52.444;13.578;2024-02-04T13:23:30;8.20;;;1.70;;
22040;SDS011;11184;52.444;13.578;2024-02-04T13:26:15;8.50;;;1.98;;
22040;SDS011;11184;52.444;13.578;2024-02-04T13:29:00;8.18;;;1.30;;
22040;SDS011;11184;52.444;13.578;2024-02-04T13:31:44;8.00;;;1.13;;
22040;SDS011;11184;52.444;13.578;2024-02-04T13:34:29;9.65;;;1.85;;
22040;SDS011;11184;52.444;13.578;2024-02-04T13:37:14;7.45;;;1.80;;
22040;SDS011;11184;52.444;13.578;2024-02-04T13:39:58;6.88;;;2.35;;
22040;SDS011;11184;52.444;13.578;2024-02-04T13:42:43;4.85;;;1.27;;
22040;SDS011;11184;52.444;13.578;2024-02-04T13:45:28;4.82;;;1.17;;
22040;SDS011;11184;52.444;13.578;2024-02-04T13:48:12;5.22;;;1.35;;
22040;SDS011;11184;52.444;13.578;2024-02-04T13:50:57;5.93;;;1.77;;
22040;SDS011;11184;52.444;13.578;2024-02-04T13:53:42;7.15;;;2.13;;
22040;SDS011;11184;52.444;13.578;2024-02-04T13:56:26;5.15;;;1.58;;
22040;SDS011;11184;52.444;13.578;2024-02-04T13:59:13;10.57;;;2.65;;
22040;SDS011;11184;52.444;13.578;2024-02-04T14:01:57;7.95;;;2.42;;
22040;SDS011;11184;52.444;13.578;2024-02-04T14:04:42;10.18;;;2.38;;
22040;SDS011;11184;52.444;13.578;2024-02-04T14:07:27;4.80;;;1.63;;
22040;SDS011;11184;52.444;13.578;2024-02-04T14:10:11;2.55;;;1.15;;
22040;SDS011;11184;52.444;13.578;2024-02-04T14:12:58;7.32;;;1.63;;
22040;SDS011;11184;52.444;13.578;2024-02-04T14:15:43;6.40;;;1.60;;
22040;SDS011;11184;52.444;13.578;2024-02-04T14:18:27;5.57;;;1.23;;
22040;SDS011;11184;52.444;13.578;2024-02-04T14:21:12;6.00;;;1.25;;
22040;SDS011;11184;52.444;13.578;2024-02-04T14:23:59;5.82;;;1.20;;
22040;SDS011;11184;52.444;13.578;2024-02-04T14:26:44;5.63;;;1.60;;
22040;SDS011;11184;52.444;13.578;2024-02-04T14:29:28;5.22;;;1.77;;
22040;SDS011;11184;52.444;13.578;2024-02-04T14:32:13;6.75;;;1.83;;
22040;SDS011;11184;52.444;13.578;2024-02-04T14:34:57;4.85;;;1.70;;
22040;SDS011;11184;52.444;13.578;2024-02-04T14:37:42;13.45;;;2.70;;
22040;SDS011;11184;52.444;13.578;2024-02-04T14:40:26;11.55;;;2.45;;
22040;SDS011;11184;52.444;13.578;2024-02-04T14:43:11;4.78;;;1.65;;
22040;SDS011;11184;52.444;13.578;2024-02-04T14:45:55;8.75;;;2.38;;
22040;SDS011;11184;52.444;13.578;2024-02-04T14:48:41;5.13;;;1.88;;
22040;SDS011;11184;52.444;13.578;2024-02-04T14:51:26;9.70;;;1.65;;
22040;SDS011;11184;52.444;13.578;2024-02-04T14:54:10;5.13;;;1.77;;
22040;SDS011;11184;52.444;13.578;2024-02-04T14:56:55;6.25;;;2.05;;
22040;SDS011;11184;52.444;13.578;2024-02-04T14:59:40;12.00;;;2.38;;
22040;SDS011;11184;52.444;13.578;2024-02-04T15:02:24;9.18;;;2.30;;
22040;SDS011;11184;52.444;13.578;2024-02-04T15:05:09;6.60;;;1.33;;
22040;SDS011;11184;52.444;13.578;2024-02-04T15:07:55;8.13;;;2.05;;
22040;SDS011;11184;52.444;13.578;2024-02-04T15:10:39;7.45;;;2.05;;
22040;SDS011;11184;52.444;13.578;2024-02-04T15:13:24;5.30;;;2.08;;
22040;SDS011;11184;52.444;13.578;2024-02-04T15:16:09;8.52;;;1.85;;
22040;SDS011;11184;52.444;13.578;2024-02-04T15:18:56;9.32;;;1.10;;
22040;SDS011;11184;52.444;13.578;2024-02-04T15:21:41;6.85;;;1.40;;
22040;SDS011;11184;52.444;13.578;2024-02-04T15:24:26;9.38;;;1.85;;
22040;SDS011;11184;52.444;13.578;2024-02-04T15:27:10;9.90;;;2.78;;
22040;SDS011;11184;52.444;13.578;2024-02-04T15:29:56;8.32;;;1.85;;
22040;SDS011;11184;52.444;13.578;2024-02-04T15:32:40;6.10;;;2.25;;
22040;SDS011;11184;52.444;13.578;2024-02-04T15:35:26;8.43;;;1.75;;
22040;SDS011;11184;52.444;13.578;2024-02-04T15:38:10;7.18;;;1.75;;
22040;SDS011;11184;52.444;13.578;2024-02-04T15:40:55;6.13;;;1.88;;
22040;SDS011;11184;52.444;13.578;2024-02-04T15:43:39;6.57;;;1.80;;
22040;SDS011;11184;52.444;13.578;2024-02-04T15:46:24;7.75;;;1.95;;
22040;SDS011;11184;52.444;13.578;2024-02-04T15:49:10;4.75;;;2.55;;
22040;SDS011;11184;52.444;13.578;2024-02-04T15:51:55;5.57;;;2.33;;
22040;SDS011;11184;52.444;13.578;2024-02-04T15:54:40;10.30;;;2.35;;
22040;SDS011;11184;52.444;13.578;2024-02-04T15:57:27;8.27;;;2.03;;
22040;SDS011;11184;52.444;13.578;2024-02-04T16:00:13;14.80;;;2.75;;
22040;SDS011;11184;52.444;13.578;2024-02-04T16:03:04;7.53;;;1.45;;
22040;SDS011;11184;52.444;13.578;2024-02-04T16:05:49;6.53;;;1.58;;
22040;SDS011;11184;52.444;13.578;2024-02-04T16:08:34;7.22;;;1.67;;
22040;SDS011;11184;52.444;13.578;2024-02-04T16:11:19;5.97;;;1.30;;
22040;SDS011;11184;52.444;13.578;2024-02-04T16:14:05;11.07;;;1.65;;
22040;SDS011;11184;52.444;13.578;2024-02-04T16:16:54;7.97;;;2.35;;
22040;SDS011;11184;52.444;13.578;2024-02-04T16:19:41;13.75;;;2.03;;